Time,TemperatureF,DewpointF,PressureIn,WindDirection,WindDirectionDegrees,WindSpeedMPH,WindSpeedGustMPH,Humidity,HourlyPrecipIn,Conditions,Clouds,dailyrainin,SoftwareType,DateUTC
2013-05-09 00:14:00,54.5,52.5,29.84,South,180,2.2,-999.0,93,-99.99,,,0.00,Acu-Link.com,2013-05-09 07:14:00,
2013-05-09 00:29:00,54.0,52.3,29.84,NE,45,0.0,-999.0,94,-99.99,,,0.00,Acu-Link.com,2013-05-09 07:29:00,
2013-05-09 00:44:00,54.0,52.6,29.85,SW,225,0.0,-999.0,95,-99.99,,,0.00,Acu-Link.com,2013-05-09 07:44:00,
2013-05-09 00:59:00,53.6,52.2,29.85,WSW,247,0.0,-999.0,95,-99.99,,,0.00,Acu-Link.com,2013-05-09 07:59:00,
2013-05-09 01:14:00,53.4,52.0,29.85,SSE,157,0.0,-999.0,95,-99.99,,,0.00,Acu-Link.com,2013-05-09 08:14:00,
2013-05-09 01:29:00,53.2,52.1,29.86,South,180,0.0,-999.0,96,-99.99,,,0.00,Acu-Link.com,2013-05-09 08:29:00,
2013-05-09 01:44:00,53.1,52.3,29.85,SSW,202,0.0,-999.0,97,-99.99,,,0.00,Acu-Link.com,2013-05-09 08:44:00,
2013-05-09 02:00:00,52.7,52.2,29.86,NNE,22,0.0,-999.0,98,-99.99,,,0.00,Acu-Link.com,2013-05-09 09:00:00,
2013-05-09 02:15:00,52.5,52.2,29.87,West,270,2.7,-999.0,99,-99.99,,,0.00,Acu-Link.com,2013-05-09 09:15:00,
2013-05-09 02:30:00,52.7,52.4,29.87,WSW,247,1.7,-999.0,99,-99.99,,,0.00,Acu-Link.com,2013-05-09 09:30:00,
2013-05-09 02:45:00,52.5,52.2,29.88,ESE,112,0.0,-999.0,99,-99.99,,,0.00,Acu-Link.com,2013-05-09 09:45:00,
2013-05-09 03:00:00,52.0,51.7,29.88,West,270,1.1,-999.0,99,-99.99,,,0.00,Acu-Link.com,2013-05-09 10:00:00,
2013-05-09 03:15:00,52.0,51.7,29.88,WNW,292,3.2,-999.0,99,-99.99,,,0.00,Acu-Link.com,2013-05-09 10:15:00,
2013-05-09 03:30:00,52.0,51.7,29.89,SW,225,1.7,-999.0,99,-99.99,,,0.00,Acu-Link.com,2013-05-09 10:30:00,
2013-05-09 03:46:00,51.8,51.5,29.88,NE,45,0.0,-999.0,99,-99.99,,,0.00,Acu-Link.com,2013-05-09 10:46:00,
2013-05-09 04:01:00,51.8,51.5,29.89,South,180,2.2,-999.0,99,-99.99,,,0.00,Acu-Link.com,2013-05-09 11:01:00,
2013-05-09 04:16:00,51.6,51.3,29.89,SW,225,2.2,-999.0,99,-99.99,,,0.00,Acu-Link.com,2013-05-09 11:16:00,
2013-05-09 04:31:00,51.6,51.3,29.89,West,270,3.2,-999.0,99,-99.99,,,0.00,Acu-Link.com,2013-05-09 11:31:00,
2013-05-09 04:46:00,51.6,51.3,29.90,NW,315,0.0,-999.0,99,-99.99,,,0.00,Acu-Link.com,2013-05-09 11:46:00,
2013-05-09 05:01:00,51.8,51.5,29.90,SW,225,0.0,-999.0,99,-99.99,,,0.00,Acu-Link.com,2013-05-09 12:01:00,
2013-05-09 05:16:00,51.8,51.5,29.90,SW,225,2.7,-999.0,99,-99.99,,,0.00,Acu-Link.com,2013-05-09 12:16:00,
2013-05-09 05:31:00,52.0,51.7,29.90,ENE,67,0.0,-999.0,99,-99.99,,,0.00,Acu-Link.com,2013-05-09 12:31:00,
2013-05-09 05:47:00,52.0,51.7,29.91,South,180,0.0,-999.0,99,-99.99,,,0.00,Acu-Link.com,2013-05-09 12:47:00,
2013-05-09 06:02:00,52.0,51.7,29.91,SSW,202,0.0,-999.0,99,-99.99,,,0.00,Acu-Link.com,2013-05-09 13:02:00,
2013-05-09 06:17:00,52.0,51.7,29.91,South,180,2.7,-999.0,99,-99.99,,,0.00,Acu-Link.com,2013-05-09 13:17:00,
2013-05-09 06:32:00,51.8,51.5,29.92,SSW,202,1.7,-999.0,99,-99.99,,,0.00,Acu-Link.com,2013-05-09 13:32:00,
2013-05-09 06:47:00,51.4,51.1,29.92,West,270,2.7,-999.0,99,-99.99,,,0.00,Acu-Link.com,2013-05-09 13:47:00,
2013-05-09 07:02:00,51.4,51.1,29.93,SW,225,3.7,-999.0,99,-99.99,,,0.00,Acu-Link.com,2013-05-09 14:02:00,
2013-05-09 07:17:00,51.4,51.1,29.93,WSW,247,3.2,-999.0,99,-99.99,,,0.00,Acu-Link.com,2013-05-09 14:17:00,
2013-05-09 07:32:00,51.4,51.1,29.93,ESE,112,2.7,-999.0,99,-99.99,,,0.00,Acu-Link.com,2013-05-09 14:32:00,
2013-05-09 07:47:00,51.4,51.1,29.93,SW,225,3.7,-999.0,99,-99.99,,,0.00,Acu-Link.com,2013-05-09 14:47:00,
2013-05-09 08:03:00,51.6,51.3,29.93,SW,225,2.7,-999.0,99,-99.99,,,0.00,Acu-Link.com,2013-05-09 15:03:00,
2013-05-09 08:18:00,51.8,51.5,29.93,SW,225,2.2,-999.0,99,-99.99,,,0.00,Acu-Link.com,2013-05-09 15:18:00,
2013-05-09 08:33:00,52.0,51.7,29.93,NNE,22,0.0,-999.0,99,-99.99,,,0.00,Acu-Link.com,2013-05-09 15:33:00,
2013-05-09 08:48:00,52.2,51.7,29.93,NE,45,0.0,-999.0,98,-99.99,,,0.00,Acu-Link.com,2013-05-09 15:48:00,
2013-05-09 09:03:00,53.4,51.7,29.93,SSW,202,2.7,-999.0,94,-99.99,,,0.00,Acu-Link.com,2013-05-09 16:03:00,
2013-05-09 09:18:00,53.2,52.1,29.93,SE,135,0.0,-999.0,96,-99.99,,,0.00,Acu-Link.com,2013-05-09 16:18:00,
2013-05-09 09:33:00,54.1,52.1,29.92,West,270,0.0,-999.0,93,-99.99,,,0.00,Acu-Link.com,2013-05-09 16:33:00,
2013-05-09 09:48:00,54.0,52.3,29.92,SW,225,2.2,-999.0,94,-99.99,,,0.00,Acu-Link.com,2013-05-09 16:48:00,
2013-05-09 10:03:00,54.1,52.4,29.92,South,180,3.7,-999.0,94,-99.99,,,0.00,Acu-Link.com,2013-05-09 17:03:00,
2013-05-09 10:19:00,54.5,52.5,29.93,SSW,202,3.7,-999.0,93,-99.99,,,0.00,Acu-Link.com,2013-05-09 17:19:00,
2013-05-09 10:34:00,54.9,52.6,29.92,WSW,247,4.7,-999.0,92,-99.99,,,0.00,Acu-Link.com,2013-05-09 17:34:00,
2013-05-09 10:49:00,54.1,52.7,29.92,SW,225,3.7,-999.0,95,-99.99,,,0.00,Acu-Link.com,2013-05-09 17:49:00,
2013-05-09 11:04:00,54.1,52.7,29.92,South,180,2.7,-999.0,95,-99.99,,,0.00,Acu-Link.com,2013-05-09 18:04:00,
2013-05-09 11:19:00,54.1,52.7,29.92,WSW,247,3.7,-999.0,95,-99.99,,,0.00,Acu-Link.com,2013-05-09 18:19:00,
2013-05-09 11:34:00,54.9,52.6,29.92,SSW,202,3.7,-999.0,92,-99.99,,,0.00,Acu-Link.com,2013-05-09 18:34:00,
2013-05-09 11:49:00,54.7,53.0,29.92,SSW,202,2.7,-999.0,94,-99.99,,,0.00,Acu-Link.com,2013-05-09 18:49:00,
2013-05-09 12:04:00,55.8,52.9,29.92,SW,225,3.2,-999.0,90,-99.99,,,0.00,Acu-Link.com,2013-05-09 19:04:00,
2013-05-09 12:19:00,56.3,52.8,29.92,SSW,202,1.7,-999.0,88,-99.99,,,0.00,Acu-Link.com,2013-05-09 19:19:00,
2013-05-09 12:35:00,54.5,52.2,29.92,West,270,1.7,-999.0,92,-99.99,,,0.00,Acu-Link.com,2013-05-09 19:35:00,
2013-05-09 12:50:00,58.1,53.3,29.90,West,270,1.7,-999.0,84,-99.99,,,0.00,Acu-Link.com,2013-05-09 19:50:00,
2013-05-09 13:05:00,57.7,52.9,29.91,South,180,3.2,-999.0,84,-99.99,,,0.00,Acu-Link.com,2013-05-09 20:05:00,
2013-05-09 13:20:00,59.2,53.4,29.91,SSW,202,3.2,-999.0,81,-99.99,,,0.00,Acu-Link.com,2013-05-09 20:20:00,
2013-05-09 13:35:00,59.9,53.7,29.90,SSW,202,4.7,-999.0,80,-99.99,,,0.00,Acu-Link.com,2013-05-09 20:35:00,
2013-05-09 13:50:00,60.1,53.6,29.89,SSW,202,2.7,-999.0,79,-99.99,,,0.00,Acu-Link.com,2013-05-09 20:50:00,
2013-05-09 14:05:00,61.7,53.7,29.89,SSW,202,3.2,-999.0,75,-99.99,,,0.00,Acu-Link.com,2013-05-09 21:05:00,
2013-05-09 14:20:00,61.9,54.2,29.89,South,180,1.1,-999.0,76,-99.99,,,0.00,Acu-Link.com,2013-05-09 21:20:00,
2013-05-09 14:35:00,61.9,54.6,29.88,SW,225,4.2,-999.0,77,-99.99,,,0.00,Acu-Link.com,2013-05-09 21:35:00,
2013-05-09 14:51:00,62.2,54.2,29.87,South,180,2.2,-999.0,75,-99.99,,,0.00,Acu-Link.com,2013-05-09 21:51:00,
2013-05-09 15:06:00,65.1,55.1,29.87,SSW,202,1.7,-999.0,70,-99.99,,,0.00,Acu-Link.com,2013-05-09 22:06:00,
2013-05-09 15:22:00,66.2,55.3,29.87,South,180,1.1,-999.0,68,-99.99,,,0.00,Acu-Link.com,2013-05-09 22:22:00,
2013-05-09 15:38:00,66.6,56.1,29.86,SW,225,5.3,-999.0,69,-99.99,,,0.00,Acu-Link.com,2013-05-09 22:38:00,
2013-05-09 15:53:00,66.9,56.0,29.85,WSW,247,4.2,-999.0,68,-99.99,,,0.00,Acu-Link.com,2013-05-09 22:53:00,
2013-05-09 16:09:00,67.6,55.8,29.84,West,270,4.7,-999.0,66,-99.99,,,0.00,Acu-Link.com,2013-05-09 23:09:00,
2013-05-09 16:28:00,68.0,55.8,29.84,South,180,5.8,-999.0,65,-99.99,,,0.00,Acu-Link.com,2013-05-09 23:28:00,
2013-05-09 16:43:00,68.7,55.6,29.83,South,180,3.2,-999.0,63,-99.99,,,0.00,Acu-Link.com,2013-05-09 23:43:00,
2013-05-09 16:59:00,68.7,51.9,29.83,SW,225,3.2,-999.0,55,-99.99,,,0.00,Acu-Link.com,2013-05-09 23:59:00,
2013-05-09 17:14:00,68.9,52.1,29.83,SW,225,4.7,-999.0,55,-99.99,,,0.00,Acu-Link.com,2013-05-10 00:14:00,
2013-05-09 17:29:00,69.1,52.2,29.81,West,270,3.2,-999.0,55,-99.99,,,0.00,Acu-Link.com,2013-05-10 00:29:00,
2013-05-09 17:44:00,69.3,51.9,29.82,West,270,3.7,-999.0,54,-99.99,,,0.00,Acu-Link.com,2013-05-10 00:44:00,
2013-05-09 18:00:00,69.3,52.4,29.81,NNW,337,4.2,-999.0,55,-99.99,,,0.00,Acu-Link.com,2013-05-10 01:00:00,
2013-05-09 18:15:00,68.9,53.0,29.81,NNW,337,4.7,-999.0,57,-99.99,,,0.00,Acu-Link.com,2013-05-10 01:15:00,
2013-05-09 18:30:00,69.1,53.7,29.81,West,270,5.3,-999.0,58,-99.99,,,0.00,Acu-Link.com,2013-05-10 01:30:00,
2013-05-09 18:45:00,68.9,53.0,29.81,WSW,247,3.7,-999.0,57,-99.99,,,0.00,Acu-Link.com,2013-05-10 01:45:00,
2013-05-09 19:00:00,70.2,53.3,29.81,West,270,4.7,-999.0,55,-99.99,,,0.00,Acu-Link.com,2013-05-10 02:00:00,
2013-05-09 19:51:00,70.3,52.3,29.82,West,270,5.3,-999.0,53,-99.99,,,0.00,Acu-Link.com,2013-05-10 02:51:00,
2013-05-09 20:06:00,65.7,53.6,29.81,SW,225,0.0,-999.0,65,-99.99,,,0.00,Acu-Link.com,2013-05-10 03:06:00,
2013-05-09 20:21:00,63.7,53.3,29.81,South,180,1.1,-999.0,69,-99.99,,,0.00,Acu-Link.com,2013-05-10 03:21:00,
2013-05-09 20:36:00,61.9,52.8,29.82,SW,225,2.7,-999.0,72,-99.99,,,0.00,Acu-Link.com,2013-05-10 03:36:00,
2013-05-09 20:51:00,61.3,52.6,29.82,South,180,0.0,-999.0,73,-99.99,,,0.00,Acu-Link.com,2013-05-10 03:51:00,
2013-05-09 21:06:00,60.3,52.0,29.82,SE,135,3.2,-999.0,74,-99.99,,,0.00,Acu-Link.com,2013-05-10 04:06:00,
2013-05-09 21:22:00,59.5,51.9,29.83,East,90,0.0,-999.0,76,-99.99,,,0.00,Acu-Link.com,2013-05-10 04:22:00,
2013-05-09 21:37:00,58.8,52.0,29.83,SE,135,1.7,-999.0,78,-99.99,,,0.00,Acu-Link.com,2013-05-10 04:37:00,
2013-05-09 21:52:00,58.1,52.6,29.84,South,180,1.7,-999.0,82,-99.99,,,0.00,Acu-Link.com,2013-05-10 04:52:00,
2013-05-09 22:07:00,57.6,52.5,29.84,WNW,292,2.7,-999.0,83,-99.99,,,0.00,Acu-Link.com,2013-05-10 05:07:00,
2013-05-09 22:22:00,57.0,52.9,29.83,WNW,292,1.7,-999.0,86,-99.99,,,0.00,Acu-Link.com,2013-05-10 05:22:00,
2013-05-09 22:37:00,56.3,52.8,29.84,SW,225,0.0,-999.0,88,-99.99,,,0.00,Acu-Link.com,2013-05-10 05:37:00,
2013-05-09 22:52:00,56.3,53.4,29.84,South,180,0.0,-999.0,90,-99.99,,,0.00,Acu-Link.com,2013-05-10 05:52:00,
2013-05-09 23:07:00,55.4,52.8,29.84,NE,45,0.0,-999.0,91,-99.99,,,0.00,Acu-Link.com,2013-05-10 06:07:00,
2013-05-09 23:22:00,55.8,53.2,29.85,NW,315,0.0,-999.0,91,-99.99,,,0.00,Acu-Link.com,2013-05-10 06:22:00,
2013-05-09 23:38:00,55.6,53.3,29.85,SW,225,0.0,-999.0,92,-99.99,,,0.00,Acu-Link.com,2013-05-10 06:38:00,
2013-05-09 23:53:00,55.2,53.2,29.86,SSW,202,0.0,-999.0,93,-99.99,,,0.00,Acu-Link.com,2013-05-10 06:53:00,